createdAt,value
2019-06-08T00:00:10.349Z,1.80
2019-06-08T00:01:10.342Z,2.10
2019-06-08T00:02:10.327Z,1.90
2019-06-08T00:03:10.316Z,2.10
2019-06-08T00:04:10.311Z,1.80
2019-06-08T00:05:10.292Z,1.70
2019-06-08T00:06:10.282Z,2.00
2019-06-08T00:07:10.270Z,1.90
2019-06-08T00:08:10.259Z,1.80
2019-06-08T00:09:10.248Z,1.90
2019-06-08T00:10:10.266Z,2.10
2019-06-08T00:11:10.225Z,1.90
2019-06-08T00:12:10.219Z,2.10
2019-06-08T00:13:10.204Z,1.90
2019-06-08T00:14:10.193Z,1.90
2019-06-08T00:15:10.184Z,1.80
2019-06-08T00:16:10.199Z,1.80
2019-06-08T00:17:10.163Z,1.90
2019-06-08T00:18:10.147Z,1.90
2019-06-08T00:19:10.135Z,2.00
2019-06-08T00:20:10.126Z,1.90
2019-06-08T00:21:10.114Z,2.00
2019-06-08T00:22:10.112Z,2.10
2019-06-08T00:23:10.093Z,1.90
2019-06-08T00:24:10.080Z,1.90
2019-06-08T00:25:10.069Z,2.00
2019-06-08T00:26:10.060Z,1.90
2019-06-08T00:27:10.047Z,1.80
2019-06-08T00:28:10.042Z,1.90
2019-06-08T00:29:10.026Z,1.80
2019-06-08T00:30:10.014Z,1.90
2019-06-08T00:31:10.004Z,1.70
2019-06-08T00:32:09.991Z,1.90
2019-06-08T00:33:09.982Z,1.80
2019-06-08T00:34:09.991Z,1.90
2019-06-08T00:35:09.960Z,1.80
2019-06-08T00:36:09.947Z,1.80
2019-06-08T00:37:09.936Z,1.90
2019-06-08T00:38:09.925Z,1.90
2019-06-08T00:39:09.913Z,2.00
2019-06-08T00:40:09.909Z,1.90
2019-06-08T00:41:09.900Z,2.00
2019-06-08T00:42:09.879Z,1.90
2019-06-08T00:43:09.869Z,1.90
2019-06-08T00:44:09.858Z,2.00
2019-06-08T00:45:09.848Z,2.00
2019-06-08T00:46:09.866Z,2.10
2019-06-08T00:47:09.824Z,1.80
2019-06-08T00:48:09.814Z,1.90
2019-06-08T00:49:09.802Z,1.90
2019-06-08T00:50:09.791Z,2.00
2019-06-08T00:51:09.780Z,2.10
2019-06-08T00:52:09.803Z,2.00
2019-06-08T00:53:09.758Z,2.00
2019-06-08T00:54:09.746Z,1.90
2019-06-08T00:55:09.736Z,2.00
2019-06-08T00:56:09.726Z,2.00
2019-06-08T00:57:09.713Z,2.00
2019-06-08T00:58:09.717Z,2.00
2019-06-08T00:59:09.691Z,2.10
2019-06-08T01:00:11.202Z,2.20
2019-06-08T01:01:09.669Z,1.80
2019-06-08T01:02:09.657Z,2.00
2019-06-08T01:03:09.648Z,2.00
2019-06-08T01:04:09.641Z,2.00
2019-06-08T01:05:09.627Z,2.00
2019-06-08T01:06:09.624Z,2.10
2019-06-08T01:07:09.602Z,2.10
2019-06-08T01:08:09.599Z,2.20
2019-06-08T01:09:09.579Z,2.00
2019-06-08T01:10:09.591Z,2.10
2019-06-08T01:11:09.558Z,2.20
2019-06-08T01:12:09.546Z,2.10
2019-06-08T01:13:09.536Z,2.20
2019-06-08T01:14:09.526Z,2.00
2019-06-08T01:15:09.788Z,1.90
2019-06-08T01:16:09.508Z,2.20
2019-06-08T01:17:09.500Z,1.80
2019-06-08T01:18:09.479Z,2.30
2019-06-08T01:19:09.468Z,2.20
2019-06-08T01:20:09.457Z,2.10
2019-06-08T01:21:09.446Z,2.20
2019-06-08T01:22:09.465Z,2.30
2019-06-08T01:23:09.423Z,2.10
2019-06-08T01:24:09.412Z,2.40
2019-06-08T01:25:09.401Z,2.00
2019-06-08T01:26:09.392Z,2.20
2019-06-08T01:27:09.381Z,2.50
2019-06-08T01:28:09.438Z,2.20
2019-06-08T01:29:09.357Z,2.10
2019-06-08T01:30:09.346Z,2.20
2019-06-08T01:31:09.334Z,2.20
2019-06-08T01:32:09.323Z,2.10
2019-06-08T01:33:09.313Z,2.20
2019-06-08T01:34:09.321Z,2.20
2019-06-08T01:35:09.290Z,2.20
2019-06-08T01:36:09.283Z,2.10
2019-06-08T01:37:09.270Z,2.00
2019-06-08T01:38:09.264Z,2.50
2019-06-08T01:39:09.245Z,2.30
2019-06-08T01:40:09.283Z,2.20
2019-06-08T01:41:09.223Z,2.30
2019-06-08T01:42:09.213Z,2.30
2019-06-08T01:43:09.203Z,2.20
2019-06-08T01:44:09.189Z,2.30
2019-06-08T01:45:09.179Z,2.40
2019-06-08T01:46:09.178Z,2.30
2019-06-08T01:47:09.155Z,2.50
2019-06-08T01:48:19.229Z,2.30
2019-06-08T01:49:10.131Z,2.70
2019-06-08T01:50:09.122Z,2.60
2019-06-08T01:51:09.165Z,2.30
2019-06-08T01:52:09.106Z,2.80
2019-06-08T01:53:09.092Z,2.50
2019-06-08T01:54:09.078Z,2.50
2019-06-08T01:55:09.067Z,2.40
2019-06-08T01:56:09.055Z,2.70
2019-06-08T01:57:09.044Z,2.60
2019-06-08T01:58:09.065Z,2.80
2019-06-08T01:59:09.023Z,2.60
2019-06-08T02:00:29.246Z,2.50
2019-06-08T02:01:09.998Z,2.60
2019-06-08T02:02:08.989Z,2.50
2019-06-08T02:03:08.978Z,2.60
2019-06-08T02:04:08.999Z,2.60
2019-06-08T02:05:08.958Z,2.50
2019-06-08T02:06:08.945Z,2.60
2019-06-08T02:07:08.932Z,2.90
2019-06-08T02:08:08.923Z,2.50
2019-06-08T02:09:08.911Z,2.80
2019-06-08T02:10:08.911Z,2.80
2019-06-08T02:11:08.889Z,2.80
2019-06-08T02:12:08.880Z,2.70
2019-06-08T02:13:09.066Z,2.80
2019-06-08T02:14:08.856Z,2.90
2019-06-08T02:15:08.895Z,2.70
2019-06-08T02:16:08.841Z,2.90
2019-06-08T02:17:08.823Z,2.90
2019-06-08T02:18:08.810Z,2.70
2019-06-08T02:19:08.799Z,2.80
2019-06-08T02:20:08.787Z,2.40
2019-06-08T02:21:08.776Z,3.00
2019-06-08T02:22:08.785Z,2.70
2019-06-08T02:23:08.756Z,2.70
2019-06-08T02:24:08.743Z,2.60
2019-06-08T02:25:08.731Z,2.90
2019-06-08T02:26:08.720Z,3.00
2019-06-08T02:27:08.711Z,2.80
2019-06-08T02:28:08.707Z,2.70
2019-06-08T02:29:08.707Z,2.60
2019-06-08T02:30:08.677Z,2.80
2019-06-08T02:31:08.666Z,2.90
2019-06-08T02:32:08.656Z,2.60
2019-06-08T02:33:08.651Z,2.80
2019-06-08T02:34:08.660Z,2.70
2019-06-08T02:35:08.629Z,2.80
2019-06-08T02:36:08.611Z,2.90
2019-06-08T02:37:08.598Z,2.70
2019-06-08T02:38:08.591Z,2.90
2019-06-08T02:39:08.578Z,2.80
2019-06-08T02:40:08.599Z,3.10
2019-06-08T02:41:08.554Z,2.70
2019-06-08T02:42:08.546Z,2.80
2019-06-08T02:43:08.532Z,2.60
2019-06-08T02:44:08.526Z,2.70
2019-06-08T02:45:08.511Z,2.40
2019-06-08T02:46:08.520Z,2.80
2019-06-08T02:47:08.487Z,2.60
2019-06-08T02:48:08.510Z,2.50
2019-06-08T02:49:08.466Z,2.80
2019-06-08T02:50:08.456Z,2.90
2019-06-08T02:51:08.449Z,2.70
2019-06-08T02:52:08.438Z,2.60
2019-06-08T02:53:08.421Z,2.50
2019-06-08T02:54:08.409Z,2.80
2019-06-08T02:55:08.397Z,2.70
2019-06-08T02:56:08.386Z,2.90
2019-06-08T02:57:08.377Z,2.60
2019-06-08T02:58:08.394Z,2.80
2019-06-08T02:59:08.355Z,2.80
2019-06-08T03:00:08.350Z,3.00
2019-06-08T03:01:08.333Z,2.70
2019-06-08T03:02:08.321Z,2.80
2019-06-08T03:03:08.309Z,2.70
2019-06-08T03:04:08.308Z,2.40
2019-06-08T03:05:08.287Z,2.60
2019-06-08T03:06:08.276Z,2.60
2019-06-08T03:07:08.265Z,2.60
2019-06-08T03:08:08.256Z,2.70
2019-06-08T03:09:08.246Z,2.70
2019-06-08T03:10:08.262Z,3.00
2019-06-08T03:11:08.232Z,2.50
2019-06-08T03:12:08.209Z,2.80
2019-06-08T03:13:08.198Z,2.50
2019-06-08T03:14:08.189Z,2.80
2019-06-08T03:15:08.175Z,2.90
2019-06-08T03:16:08.192Z,2.70
2019-06-08T03:17:08.155Z,2.60
2019-06-08T03:18:08.142Z,2.50
2019-06-08T03:19:20.576Z,2.30
2019-06-08T03:20:09.118Z,2.40
2019-06-08T03:21:08.111Z,2.50
2019-06-08T03:22:10.761Z,2.60
2019-06-08T03:23:08.087Z,2.40
2019-06-08T03:24:08.076Z,2.70
2019-06-08T03:25:08.064Z,2.50
2019-06-08T03:26:08.057Z,2.70
2019-06-08T03:27:08.041Z,2.50
2019-06-08T03:28:08.036Z,2.30
2019-06-08T03:29:08.019Z,2.20
2019-06-08T03:30:17.191Z,2.70
2019-06-08T03:31:09.090Z,2.80
2019-06-08T03:32:07.988Z,2.50
2019-06-08T03:33:07.975Z,2.70
2019-06-08T03:34:07.972Z,2.60
2019-06-08T03:35:07.969Z,2.30
2019-06-08T03:36:07.961Z,2.50
2019-06-08T03:37:07.931Z,2.60
2019-06-08T03:38:07.919Z,2.40
2019-06-08T03:39:07.907Z,2.70
2019-06-08T03:40:07.902Z,2.40
2019-06-08T03:41:07.889Z,2.60
2019-06-08T03:42:07.875Z,2.60
2019-06-08T03:43:07.864Z,2.40
2019-06-08T03:44:07.852Z,2.30
2019-06-08T03:45:07.841Z,2.40
2019-06-08T03:46:07.859Z,2.50
2019-06-08T03:47:07.820Z,2.20
2019-06-08T03:48:07.806Z,2.50
2019-06-08T03:49:07.806Z,2.30
2019-06-08T03:50:07.784Z,2.40
2019-06-08T03:51:07.790Z,2.30
2019-06-08T03:52:07.783Z,2.50
2019-06-08T03:53:07.757Z,2.50
2019-06-08T03:54:07.742Z,2.60
2019-06-08T03:55:07.729Z,2.40
2019-06-08T03:56:07.725Z,2.20
2019-06-08T03:57:07.706Z,2.30
2019-06-08T03:58:10.330Z,2.60
2019-06-08T03:59:07.685Z,2.60
2019-06-08T04:00:12.847Z,2.60
2019-06-08T04:01:08.668Z,2.50
2019-06-08T04:02:07.652Z,2.30
2019-06-08T04:03:07.640Z,2.50
2019-06-08T04:04:07.637Z,2.50
2019-06-08T04:05:07.618Z,2.40
2019-06-08T04:06:07.607Z,2.40
2019-06-08T04:07:07.594Z,2.40
2019-06-08T04:08:07.583Z,2.30
2019-06-08T04:09:07.575Z,2.40
2019-06-08T04:10:07.573Z,2.60
2019-06-08T04:11:07.552Z,2.40
2019-06-08T04:12:07.541Z,2.50
2019-06-08T04:13:11.178Z,2.30
2019-06-08T04:14:07.517Z,2.40
2019-06-08T04:15:07.507Z,2.20
2019-06-08T04:16:07.513Z,2.50
2019-06-08T04:17:07.485Z,2.40
2019-06-08T04:18:07.478Z,2.40
2019-06-08T04:19:07.460Z,2.50
2019-06-08T04:20:11.603Z,2.50
2019-06-08T04:21:07.456Z,2.40
2019-06-08T04:22:07.458Z,2.30
2019-06-08T04:23:07.419Z,2.20
2019-06-08T04:24:07.406Z,2.20
2019-06-08T04:25:07.396Z,2.30
2019-06-08T04:26:07.387Z,2.20
2019-06-08T04:27:07.372Z,2.40
2019-06-08T04:28:07.382Z,2.20
2019-06-08T04:29:07.352Z,2.60
2019-06-08T04:30:07.349Z,2.50
2019-06-08T04:31:07.333Z,2.50
2019-06-08T04:32:07.317Z,2.50
2019-06-08T04:33:07.307Z,2.20
2019-06-08T04:34:07.327Z,2.20
2019-06-08T04:35:07.283Z,2.50
2019-06-08T04:36:07.275Z,2.30
2019-06-08T04:37:07.261Z,2.20
2019-06-08T04:38:07.250Z,2.20
2019-06-08T04:39:07.246Z,2.20
2019-06-08T04:40:07.239Z,2.20
2019-06-08T04:41:07.219Z,2.30
2019-06-08T04:42:07.205Z,2.40
2019-06-08T04:43:07.200Z,2.30
2019-06-08T04:44:07.184Z,2.20
2019-06-08T04:45:07.174Z,2.30
2019-06-08T04:46:07.171Z,2.40
2019-06-08T04:47:07.155Z,2.40
2019-06-08T04:48:09.665Z,2.50
2019-06-08T04:49:07.126Z,2.40
2019-06-08T04:50:21.822Z,2.30
2019-06-08T04:51:08.132Z,2.30
2019-06-08T04:52:07.093Z,2.10
2019-06-08T04:53:07.081Z,2.40
2019-06-08T04:54:07.071Z,2.20
2019-06-08T04:55:07.069Z,2.20
2019-06-08T04:56:07.049Z,2.20
2019-06-08T04:57:07.058Z,2.20
2019-06-08T04:58:07.028Z,2.20
2019-06-08T04:59:07.016Z,2.00
2019-06-08T05:00:12.186Z,2.30
2019-06-08T05:01:07.994Z,2.20
2019-06-08T05:02:06.983Z,2.20
2019-06-08T05:03:06.982Z,2.20
2019-06-08T05:04:06.960Z,2.20
2019-06-08T05:05:06.949Z,2.10
2019-06-08T05:06:06.938Z,2.20
2019-06-08T05:07:06.927Z,2.30
2019-06-08T05:08:06.914Z,2.20
2019-06-08T05:09:06.934Z,2.20
2019-06-08T05:10:06.894Z,2.20
2019-06-08T05:11:06.882Z,2.10
2019-06-08T05:12:06.875Z,1.80
2019-06-08T05:13:06.859Z,2.00
2019-06-08T05:14:06.847Z,2.10
2019-06-08T05:15:06.867Z,2.20
2019-06-08T05:16:06.829Z,1.90
2019-06-08T05:17:06.815Z,2.10
2019-06-08T05:18:06.809Z,2.50
2019-06-08T05:19:06.795Z,2.40
2019-06-08T05:20:06.781Z,2.10
2019-06-08T05:21:06.802Z,2.20
2019-06-08T05:22:06.758Z,2.20
2019-06-08T05:23:06.749Z,2.30
2019-06-08T05:24:06.738Z,2.10
2019-06-08T05:25:06.726Z,2.10
2019-06-08T05:26:06.715Z,2.20
2019-06-08T05:27:06.708Z,2.10
2019-06-08T05:28:06.692Z,2.20
2019-06-08T05:29:06.681Z,2.20
2019-06-08T05:30:08.702Z,2.10
2019-06-08T05:31:06.659Z,2.30
2019-06-08T05:32:06.646Z,2.10
2019-06-08T05:33:06.642Z,2.20
2019-06-08T05:34:06.624Z,2.00
2019-06-08T05:35:06.614Z,1.90
2019-06-08T05:36:06.603Z,2.30
2019-06-08T05:37:06.597Z,2.30
2019-06-08T05:38:06.582Z,2.00
2019-06-08T05:39:06.598Z,2.20
2019-06-08T05:40:06.560Z,2.30
2019-06-08T05:41:06.546Z,2.30
2019-06-08T05:42:06.535Z,2.00
2019-06-08T05:43:06.531Z,2.30
2019-06-08T05:44:06.512Z,2.10
2019-06-08T05:45:06.509Z,2.30
2019-06-08T05:46:06.491Z,2.20
2019-06-08T05:47:06.484Z,2.10
2019-06-08T05:48:06.474Z,2.00
2019-06-08T05:49:06.457Z,2.20
2019-06-08T05:50:06.447Z,2.10
2019-06-08T05:51:06.441Z,2.30
2019-06-08T05:52:06.423Z,2.10
2019-06-08T05:53:06.412Z,2.20
2019-06-08T05:54:06.403Z,2.10
2019-06-08T05:55:06.390Z,2.10
2019-06-08T05:56:06.379Z,2.10
2019-06-08T05:57:06.376Z,2.00
2019-06-08T05:58:06.357Z,2.20
2019-06-08T05:59:06.346Z,1.90
2019-06-08T06:00:09.064Z,2.50
2019-06-08T06:01:06.325Z,2.30
2019-06-08T06:02:06.313Z,1.80
2019-06-08T06:03:06.327Z,2.00
2019-06-08T06:04:06.290Z,2.00
2019-06-08T06:05:06.279Z,2.00
2019-06-08T06:06:06.269Z,2.20
2019-06-08T06:07:06.260Z,1.90
2019-06-08T06:08:18.032Z,2.10
2019-06-08T06:09:07.243Z,2.20
2019-06-08T06:10:06.229Z,2.00
2019-06-08T06:11:06.213Z,2.30
2019-06-08T06:12:06.200Z,1.90
2019-06-08T06:13:06.189Z,1.90
2019-06-08T06:14:06.179Z,2.00
2019-06-08T06:15:06.186Z,2.10
2019-06-08T06:16:06.157Z,2.00
2019-06-08T06:17:06.146Z,1.90
2019-06-08T06:18:06.157Z,1.90
2019-06-08T06:19:06.123Z,1.80
2019-06-08T06:20:06.115Z,2.00
2019-06-08T06:21:11.201Z,2.00
2019-06-08T06:22:07.088Z,2.10
2019-06-08T06:23:06.079Z,1.90
2019-06-08T06:24:06.067Z,2.20
2019-06-08T06:25:06.085Z,2.00
2019-06-08T06:26:06.054Z,1.90
2019-06-08T06:27:06.054Z,1.90
2019-06-08T06:28:06.531Z,2.00
2019-06-08T06:29:06.011Z,2.00
2019-06-08T06:30:06.005Z,2.00
2019-06-08T06:31:05.988Z,1.90
2019-06-08T06:32:05.984Z,1.80
2019-06-08T06:33:05.993Z,2.20
2019-06-08T06:34:05.957Z,2.00
2019-06-08T06:35:05.945Z,2.00
2019-06-08T06:36:05.935Z,2.10
2019-06-08T06:37:05.922Z,2.30
2019-06-08T06:38:05.911Z,2.00
2019-06-08T06:39:05.921Z,1.90
2019-06-08T06:40:05.892Z,2.00
2019-06-08T06:41:05.881Z,2.10
2019-06-08T06:42:05.868Z,2.20
2019-06-08T06:43:05.855Z,1.90
2019-06-08T06:44:05.845Z,1.80
2019-06-08T06:45:05.843Z,2.00
2019-06-08T06:46:05.823Z,1.90
2019-06-08T06:47:05.812Z,2.00
2019-06-08T06:48:05.800Z,2.10
2019-06-08T06:49:05.789Z,1.80
2019-06-08T06:50:05.786Z,1.90
2019-06-08T06:51:05.797Z,2.10
2019-06-08T06:52:05.755Z,2.00
2019-06-08T06:53:05.745Z,2.00
2019-06-08T06:54:05.733Z,1.80
2019-06-08T06:55:05.723Z,1.90
2019-06-08T06:56:05.711Z,1.90
2019-06-08T06:57:05.732Z,2.00
2019-06-08T06:58:05.688Z,1.90
2019-06-08T06:59:05.686Z,1.80
2019-06-08T07:00:05.715Z,1.90
2019-06-08T07:01:05.661Z,1.80
2019-06-08T07:02:05.643Z,1.80
2019-06-08T07:03:05.663Z,1.80
2019-06-08T07:04:05.625Z,2.00
2019-06-08T07:05:05.610Z,1.90
2019-06-08T07:06:05.600Z,1.70
2019-06-08T07:07:05.620Z,1.80
2019-06-08T07:08:05.578Z,1.70
2019-06-08T07:09:05.588Z,2.20
2019-06-08T07:10:05.556Z,1.80
2019-06-08T07:11:05.544Z,1.80
2019-06-08T07:12:05.533Z,1.80
2019-06-08T07:13:05.521Z,1.80
2019-06-08T07:14:05.510Z,1.70
2019-06-08T07:15:05.507Z,1.90
2019-06-08T07:16:17.937Z,1.80
2019-06-08T07:17:06.475Z,1.90
2019-06-08T07:18:05.470Z,1.60
2019-06-08T07:19:05.480Z,1.70
2019-06-08T07:20:05.444Z,1.70
2019-06-08T07:21:05.440Z,1.80
2019-06-08T07:22:05.420Z,1.70
2019-06-08T07:23:05.410Z,1.80
2019-06-08T07:24:05.399Z,1.70
2019-06-08T07:25:05.391Z,1.90
2019-06-08T07:26:05.376Z,1.70
2019-06-08T07:27:07.449Z,1.70
2019-06-08T07:28:05.355Z,1.80
2019-06-08T07:29:05.361Z,1.90
2019-06-08T07:30:05.354Z,1.70
2019-06-08T07:31:05.321Z,1.70
2019-06-08T07:32:05.310Z,1.80
2019-06-08T07:33:05.354Z,1.90
2019-06-08T07:34:05.287Z,1.80
2019-06-08T07:35:05.277Z,1.60
2019-06-08T07:36:05.265Z,1.80
2019-06-08T07:37:05.253Z,1.90
2019-06-08T07:38:05.248Z,1.80
2019-06-08T07:39:05.238Z,2.00
2019-06-08T07:40:05.223Z,1.70
2019-06-08T07:41:05.209Z,2.00
2019-06-08T07:42:05.199Z,1.80
2019-06-08T07:43:05.188Z,1.80
2019-06-08T07:44:05.176Z,1.80
2019-06-08T07:45:05.199Z,1.70
2019-06-08T07:46:05.153Z,1.90
2019-06-08T07:47:05.143Z,1.80
2019-06-08T07:48:05.131Z,1.70
2019-06-08T07:49:05.121Z,1.80
2019-06-08T07:50:05.173Z,1.70
2019-06-08T07:51:05.131Z,1.70
2019-06-08T07:52:10.128Z,1.70
2019-06-08T07:53:06.074Z,1.70
2019-06-08T07:54:05.064Z,1.70
2019-06-08T07:55:05.054Z,1.80
2019-06-08T07:56:05.043Z,1.80
2019-06-08T07:57:05.068Z,1.70
2019-06-08T07:58:05.022Z,1.70
2019-06-08T07:59:05.009Z,1.60
2019-06-08T08:00:09.199Z,1.70
2019-06-08T08:01:08.140Z,1.70
2019-06-08T08:02:04.975Z,1.60
2019-06-08T08:03:05.000Z,1.60
2019-06-08T08:04:04.953Z,1.60
2019-06-08T08:05:04.942Z,1.60
2019-06-08T08:06:04.931Z,1.70
2019-06-08T08:07:04.920Z,1.60
2019-06-08T08:08:04.908Z,1.70
2019-06-08T08:09:04.931Z,1.90
2019-06-08T08:10:04.942Z,1.60
2019-06-08T08:11:04.875Z,1.70
2019-06-08T08:12:04.866Z,1.60
2019-06-08T08:13:04.855Z,1.80
2019-06-08T08:14:04.842Z,1.70
2019-06-08T08:15:04.863Z,1.70
2019-06-08T08:16:04.819Z,1.70
2019-06-08T08:17:04.809Z,1.70
2019-06-08T08:18:04.797Z,1.70
2019-06-08T08:19:04.786Z,1.50
2019-06-08T08:20:04.775Z,1.70
2019-06-08T08:21:15.486Z,1.50
2019-06-08T08:22:19.603Z,1.60
2019-06-08T08:23:08.544Z,1.60
2019-06-08T08:24:07.177Z,1.60
2019-06-08T08:25:05.199Z,1.60
2019-06-08T08:26:04.724Z,1.40
2019-06-08T08:27:04.729Z,1.60
2019-06-08T08:28:04.685Z,1.70
2019-06-08T08:29:04.675Z,1.60
2019-06-08T08:30:04.663Z,1.70
2019-06-08T08:31:04.652Z,1.60
2019-06-08T08:32:04.641Z,1.70
2019-06-08T08:33:04.662Z,1.50
2019-06-08T08:34:06.858Z,1.60
2019-06-08T08:35:04.608Z,1.50
2019-06-08T08:36:04.600Z,1.60
2019-06-08T08:37:08.767Z,1.70
2019-06-08T08:38:04.872Z,1.50
2019-06-08T08:39:04.596Z,1.60
2019-06-08T08:40:04.552Z,1.60
2019-06-08T08:41:07.700Z,1.60
2019-06-08T08:42:05.641Z,1.60
2019-06-08T08:43:04.521Z,1.50
2019-06-08T08:44:04.917Z,1.30
2019-06-08T08:45:05.453Z,1.60
2019-06-08T08:46:04.490Z,1.60
2019-06-08T08:47:04.475Z,1.40
2019-06-08T08:48:20.038Z,1.70
2019-06-08T08:49:12.089Z,1.70
2019-06-08T08:50:07.447Z,1.70
2019-06-08T08:51:04.430Z,1.40
2019-06-08T08:52:04.419Z,1.50
2019-06-08T08:53:04.407Z,1.60
2019-06-08T08:54:05.342Z,1.50
2019-06-08T08:55:04.386Z,1.50
2019-06-08T08:56:04.409Z,1.60
2019-06-08T08:57:05.257Z,1.70
2019-06-08T08:58:04.354Z,1.60
2019-06-08T08:59:04.341Z,1.60
2019-06-08T09:00:05.158Z,1.50
2019-06-08T09:01:04.388Z,1.40
2019-06-08T09:02:04.342Z,1.70
2019-06-08T09:03:24.299Z,1.60
2019-06-08T09:04:05.358Z,1.40
2019-06-08T09:05:04.297Z,1.40
2019-06-08T09:06:04.633Z,1.40
2019-06-08T09:07:07.818Z,1.40
2019-06-08T09:08:05.297Z,1.50
2019-06-08T09:09:04.229Z,1.90
2019-06-08T09:10:04.352Z,1.50
2019-06-08T09:11:04.300Z,1.70
2019-06-08T09:12:04.613Z,1.50
2019-06-08T09:13:04.800Z,1.40
2019-06-08T09:14:06.846Z,1.50
2019-06-08T09:15:05.224Z,1.50
2019-06-08T09:16:04.574Z,1.40
2019-06-08T09:17:04.299Z,1.50
2019-06-08T09:18:04.278Z,1.60
2019-06-08T09:19:04.661Z,1.50
2019-06-08T09:20:04.116Z,1.50
2019-06-08T09:21:04.406Z,1.40
2019-06-08T09:22:04.288Z,1.50
2019-06-08T09:23:12.654Z,1.40
2019-06-08T09:24:07.501Z,1.30
2019-06-08T09:25:04.590Z,1.60
2019-06-08T09:26:11.659Z,1.50
2019-06-08T09:27:07.802Z,1.30
2019-06-08T09:28:04.900Z,1.50
2019-06-08T09:29:08.291Z,1.30
2019-06-08T09:30:05.082Z,1.30
2019-06-08T09:31:04.198Z,1.50
2019-06-08T09:32:04.219Z,1.60
2019-06-08T09:33:04.305Z,1.50
2019-06-08T09:34:10.563Z,1.30
2019-06-08T09:35:05.000Z,1.80
2019-06-08T09:36:05.009Z,1.60
2019-06-08T09:37:05.105Z,1.60
2019-06-08T09:38:05.098Z,1.60
2019-06-08T09:39:05.173Z,1.50
2019-06-08T09:40:04.948Z,1.30
2019-06-08T09:41:05.332Z,1.70
2019-06-08T09:42:05.069Z,1.50
2019-06-08T09:43:09.326Z,1.60
2019-06-08T09:44:05.847Z,1.50
2019-06-08T09:45:05.506Z,1.40
2019-06-08T09:46:05.338Z,1.50
2019-06-08T09:47:09.472Z,1.60
2019-06-08T09:48:06.484Z,1.60
2019-06-08T09:49:06.489Z,1.30
2019-06-08T09:50:05.577Z,1.60
2019-06-08T09:51:05.647Z,1.50
2019-06-08T09:52:05.165Z,1.40
2019-06-08T09:53:22.040Z,1.40
2019-06-08T09:54:08.529Z,1.30
2019-06-08T09:55:06.951Z,1.30
2019-06-08T09:56:06.228Z,1.50
2019-06-08T09:57:06.773Z,1.50
2019-06-08T09:58:06.661Z,1.30
2019-06-08T09:59:06.108Z,1.40
2019-06-08T10:00:14.365Z,1.40
2019-06-08T10:01:06.148Z,1.30
2019-06-08T10:02:09.012Z,1.40
2019-06-08T10:03:06.479Z,1.40
2019-06-08T10:04:05.829Z,1.50
2019-06-08T10:05:04.483Z,1.40
2019-06-08T10:06:08.116Z,1.50
2019-06-08T10:07:05.735Z,1.40
2019-06-08T10:08:04.594Z,1.40
2019-06-08T10:09:04.819Z,1.50
2019-06-08T10:10:04.789Z,1.40
2019-06-08T10:11:05.681Z,1.40
2019-06-08T10:12:05.021Z,1.20
2019-06-08T10:13:06.174Z,1.40
2019-06-08T10:14:08.531Z,1.40
2019-06-08T10:15:04.763Z,1.60
2019-06-08T10:16:05.731Z,1.50
2019-06-08T10:17:06.669Z,1.50
2019-06-08T10:18:04.849Z,1.40
2019-06-08T10:19:05.926Z,1.50
2019-06-08T10:20:04.627Z,1.40
2019-06-08T10:21:04.967Z,1.60
2019-06-08T10:22:05.032Z,1.30
2019-06-08T10:23:05.538Z,1.30
2019-06-08T10:24:06.314Z,1.40
2019-06-08T10:25:07.466Z,1.30
2019-06-08T10:26:05.275Z,1.40
2019-06-08T10:27:03.634Z,1.30
2019-06-08T10:28:07.862Z,1.40
2019-06-08T10:29:06.263Z,1.30
2019-06-08T10:30:06.864Z,1.40
2019-06-08T10:31:05.222Z,1.30
2019-06-08T10:32:03.788Z,1.40
2019-06-08T10:33:05.140Z,1.40
2019-06-08T10:34:03.919Z,1.20
2019-06-08T10:35:05.380Z,1.40
2019-06-08T10:36:05.275Z,1.20
2019-06-08T10:37:08.308Z,1.30
2019-06-08T10:38:07.926Z,1.30
2019-06-08T10:39:07.279Z,1.40
2019-06-08T10:40:05.617Z,1.20
2019-06-08T10:41:12.935Z,1.40
2019-06-08T10:42:05.251Z,1.40
2019-06-08T10:43:04.493Z,1.50
2019-06-08T10:44:03.517Z,1.50
2019-06-08T10:45:07.671Z,1.30
2019-06-08T10:46:10.240Z,1.30
2019-06-08T10:47:06.337Z,1.70
2019-06-08T10:48:04.448Z,1.30
2019-06-08T10:49:04.122Z,1.30
2019-06-08T10:50:08.967Z,1.30
2019-06-08T10:51:05.572Z,1.30
2019-06-08T10:52:04.464Z,1.40
2019-06-08T10:53:05.871Z,1.20
2019-06-08T10:54:04.295Z,1.30
2019-06-08T10:55:05.017Z,1.30
2019-06-08T10:56:04.871Z,1.20
2019-06-08T10:57:05.714Z,1.40
2019-06-08T10:58:04.402Z,1.40
2019-06-08T10:59:05.047Z,1.50
2019-06-08T11:00:13.691Z,1.40
2019-06-08T11:01:07.832Z,1.40
2019-06-08T11:02:07.379Z,1.30
2019-06-08T11:03:05.443Z,1.20
2019-06-08T11:04:03.269Z,1.20
2019-06-08T11:05:07.448Z,1.10
2019-06-08T11:06:05.736Z,1.20
2019-06-08T11:07:06.986Z,1.50
2019-06-08T11:08:04.488Z,1.40
2019-06-08T11:09:06.119Z,1.30
2019-06-08T11:10:05.668Z,1.20
2019-06-08T11:11:04.872Z,1.30
2019-06-08T11:12:03.370Z,1.20
2019-06-08T11:13:08.263Z,1.40
2019-06-08T11:14:05.478Z,1.30
2019-06-08T11:15:03.534Z,1.10
2019-06-08T11:16:05.349Z,1.50
2019-06-08T11:17:02.873Z,1.40
2019-06-08T11:18:06.640Z,1.30
2019-06-08T11:19:03.984Z,1.20
2019-06-08T11:20:04.391Z,1.30
2019-06-08T11:21:03.738Z,1.20
2019-06-08T11:22:07.388Z,1.40
2019-06-08T11:23:05.523Z,1.20
2019-06-08T11:24:14.453Z,1.60
2019-06-08T11:25:04.396Z,1.20
2019-06-08T11:26:04.669Z,1.20
2019-06-08T11:27:03.735Z,1.40
2019-06-08T11:28:03.707Z,1.30
2019-06-08T11:29:03.003Z,1.40
2019-06-08T11:30:09.985Z,1.40
2019-06-08T11:31:04.008Z,1.00
2019-06-08T11:32:04.180Z,1.30
2019-06-08T11:33:03.770Z,1.20
2019-06-08T11:34:03.903Z,1.60
2019-06-08T11:35:04.070Z,1.20
2019-06-08T11:36:06.124Z,1.30
2019-06-08T11:37:04.780Z,1.20
2019-06-08T11:38:03.738Z,1.20
2019-06-08T11:39:04.014Z,1.40
2019-06-08T11:40:04.429Z,1.40
2019-06-08T11:41:04.646Z,1.10
2019-06-08T11:42:02.526Z,1.30
2019-06-08T11:43:02.514Z,1.30
2019-06-08T11:44:03.860Z,1.30
2019-06-08T11:45:02.495Z,1.20
2019-06-08T11:46:02.620Z,1.00
2019-06-08T11:47:02.617Z,1.30
2019-06-08T11:48:02.808Z,1.10
2019-06-08T11:49:05.088Z,1.50
2019-06-08T11:50:02.881Z,2.10
2019-06-08T11:51:02.613Z,1.20
2019-06-08T11:52:02.599Z,1.20
2019-06-08T11:53:03.995Z,1.00
2019-06-08T11:54:02.987Z,1.20
2019-06-08T11:55:04.168Z,1.10
2019-06-08T11:56:02.749Z,1.40
2019-06-08T11:57:02.823Z,1.10
2019-06-08T11:58:02.931Z,1.10
2019-06-08T11:59:03.059Z,1.20
2019-06-08T12:00:10.120Z,1.00
2019-06-08T12:01:05.046Z,1.20
2019-06-08T12:02:03.460Z,1.30
2019-06-08T12:03:02.627Z,1.10
2019-06-08T12:04:03.543Z,1.40
2019-06-08T12:05:02.277Z,1.20
2019-06-08T12:06:02.313Z,1.20
2019-06-08T12:07:02.248Z,1.30
2019-06-08T12:08:02.826Z,1.60
2019-06-08T12:09:02.656Z,1.00
2019-06-08T12:10:02.990Z,1.50
2019-06-08T12:11:03.858Z,1.10
2019-06-08T12:12:02.515Z,1.40
2019-06-08T12:13:02.567Z,1.20
2019-06-08T12:14:02.728Z,1.00
2019-06-08T12:15:02.977Z,1.00
2019-06-08T12:16:03.083Z,1.90
2019-06-08T12:17:03.428Z,1.00
2019-06-08T12:18:03.369Z,1.30
2019-06-08T12:19:04.120Z,1.10
2019-06-08T12:20:03.301Z,1.10
2019-06-08T12:21:02.093Z,1.20
2019-06-08T12:22:02.081Z,1.40
2019-06-08T12:23:02.099Z,1.10
2019-06-08T12:24:02.058Z,1.20
2019-06-08T12:25:02.068Z,1.00
2019-06-08T12:26:02.039Z,1.20
2019-06-08T12:27:10.741Z,1.00
2019-06-08T12:28:04.487Z,1.30
2019-06-08T12:29:02.003Z,1.50
2019-06-08T12:30:08.883Z,1.80
2019-06-08T12:31:02.979Z,0.90
2019-06-08T12:32:01.971Z,1.20
2019-06-08T12:33:01.962Z,1.30
2019-06-08T12:34:01.979Z,1.50
2019-06-08T12:35:01.938Z,1.30
2019-06-08T12:36:01.926Z,1.20
2019-06-08T12:37:01.915Z,1.10
2019-06-08T12:38:01.905Z,1.30
2019-06-08T12:39:01.893Z,1.20
2019-06-08T12:40:01.910Z,1.30
2019-06-08T12:41:01.871Z,1.20
2019-06-08T12:42:01.858Z,1.20
2019-06-08T12:43:01.849Z,1.10
2019-06-08T12:44:01.837Z,1.40
2019-06-08T12:45:01.826Z,1.30
2019-06-08T12:46:01.896Z,1.10
2019-06-08T12:47:01.805Z,0.90
2019-06-08T12:48:01.796Z,1.20
2019-06-08T12:49:01.784Z,1.40
2019-06-08T12:50:01.771Z,1.10
2019-06-08T12:51:01.760Z,1.20
2019-06-08T12:52:01.769Z,1.20
2019-06-08T12:53:01.737Z,1.00
2019-06-08T12:54:01.725Z,1.00
2019-06-08T12:55:06.758Z,1.60
2019-06-08T12:56:02.702Z,1.10
2019-06-08T12:57:01.693Z,1.00
2019-06-08T12:58:01.718Z,1.30
2019-06-08T12:59:01.672Z,1.20
2019-06-08T13:00:01.659Z,1.30
2019-06-08T13:01:01.649Z,1.00
2019-06-08T13:02:01.637Z,1.60
2019-06-08T13:03:01.628Z,1.00
2019-06-08T13:04:01.642Z,1.10
2019-06-08T13:05:01.603Z,1.20
2019-06-08T13:06:01.593Z,1.30
2019-06-08T13:07:01.622Z,1.30
2019-06-08T13:08:01.582Z,2.00
2019-06-08T13:09:01.559Z,1.30
2019-06-08T13:10:01.562Z,1.10
2019-06-08T13:11:01.538Z,1.10
2019-06-08T13:12:01.530Z,1.20
2019-06-08T13:13:01.516Z,1.20
2019-06-08T13:14:01.506Z,1.10
2019-06-08T13:15:01.495Z,0.90
2019-06-08T13:16:01.489Z,1.10
2019-06-08T13:17:01.472Z,0.90
2019-06-08T13:18:01.460Z,0.80